createdAt,value
2023-11-26T03:06:46.556Z,1.17
2023-11-26T03:09:13.163Z,1.14
2023-11-26T03:11:39.810Z,1.12
2023-11-26T03:14:06.429Z,1.08
2023-11-26T03:16:33.087Z,0.91
2023-11-26T03:18:59.709Z,1.29
2023-11-26T03:21:26.294Z,1.05
2023-11-26T03:23:52.891Z,1.16
2023-11-26T03:26:19.574Z,1.06
2023-11-26T03:28:46.187Z,1.05
2023-11-26T03:31:12.787Z,0.95
2023-11-26T03:33:39.493Z,1.00
2023-11-26T03:36:06.131Z,1.10
2023-11-26T03:38:32.741Z,1.08
2023-11-26T03:40:59.386Z,0.92
2023-11-26T03:43:26.010Z,0.93
2023-11-26T03:45:52.627Z,0.85
2023-11-26T03:48:19.241Z,0.89
2023-11-26T03:50:45.837Z,1.00
2023-11-26T03:53:12.463Z,1.05
2023-11-26T03:55:39.074Z,1.07
2023-11-26T03:58:05.671Z,1.03
2023-11-26T04:00:32.279Z,0.90
2023-11-26T04:02:59.025Z,0.81
2023-11-26T04:05:25.702Z,0.82
2023-11-26T04:07:52.392Z,0.98
2023-11-26T04:10:27.294Z,0.84
2023-11-26T04:12:57.883Z,1.01
2023-11-26T04:15:24.483Z,0.93
2023-11-26T04:17:51.235Z,0.91
2023-11-26T04:20:17.924Z,0.90
2023-11-26T04:22:45.677Z,0.86
2023-11-26T04:25:12.548Z,0.80
2023-11-26T04:27:39.151Z,0.81
2023-11-26T04:30:05.761Z,0.79
2023-11-26T04:32:32.409Z,0.81
2023-11-26T04:34:59.140Z,0.77
2023-11-26T04:37:25.742Z,0.81
2023-11-26T04:39:52.342Z,0.87
2023-11-26T04:42:18.955Z,0.83
2023-11-26T04:44:45.598Z,0.79
2023-11-26T04:47:12.235Z,0.72
2023-11-26T04:49:38.841Z,0.76
2023-11-26T04:52:05.432Z,0.84
2023-11-26T04:54:32.037Z,0.79
2023-11-26T04:56:58.642Z,0.77
2023-11-26T04:59:25.266Z,0.79
2023-11-26T05:01:51.938Z,0.81
2023-11-26T05:04:18.757Z,0.80
2023-11-26T05:06:45.411Z,0.79
2023-11-26T05:09:12.022Z,0.72
2023-11-26T05:11:38.618Z,0.81
2023-11-26T05:14:05.229Z,0.68
2023-11-26T05:16:31.856Z,0.72
2023-11-26T05:18:58.485Z,0.81
2023-11-26T05:21:25.090Z,0.76
2023-11-26T05:23:51.688Z,0.73
2023-11-26T05:26:18.322Z,0.76
2023-11-26T05:28:44.935Z,0.72
2023-11-26T05:31:11.546Z,0.65
2023-11-26T05:33:38.166Z,0.76
2023-11-26T05:36:04.763Z,0.69
2023-11-26T05:38:31.366Z,0.62
2023-11-26T05:40:58.057Z,0.65
2023-11-26T05:43:24.682Z,0.56
2023-11-26T05:45:51.471Z,0.68
2023-11-26T05:48:18.127Z,0.68
2023-11-26T05:50:44.770Z,0.76
2023-11-26T05:53:11.350Z,0.83
2023-11-26T05:55:37.942Z,0.82
2023-11-26T05:58:04.535Z,0.78
2023-11-26T06:00:31.218Z,0.78
2023-11-26T06:02:57.861Z,0.80
2023-11-26T06:05:24.466Z,0.94
2023-11-26T06:07:51.061Z,0.91
2023-11-26T06:10:17.650Z,0.97
2023-11-26T06:12:44.269Z,1.06
2023-11-26T06:15:10.961Z,1.10
2023-11-26T06:17:37.617Z,0.95
2023-11-26T06:20:04.235Z,1.15
2023-11-26T06:22:30.825Z,1.02
2023-11-26T06:24:57.414Z,1.06
2023-11-26T06:27:24.063Z,1.15
2023-11-26T06:29:50.673Z,1.10
2023-11-26T06:32:17.470Z,1.07
2023-11-26T06:34:44.291Z,1.28
2023-11-26T06:37:10.969Z,1.15
2023-11-26T06:39:37.624Z,1.29
2023-11-26T06:42:04.253Z,1.41
2023-11-26T06:44:30.842Z,1.31
2023-11-26T06:46:57.520Z,1.46
2023-11-26T06:49:24.122Z,1.46
2023-11-26T06:51:50.772Z,1.46
2023-11-26T06:54:17.454Z,1.74
2023-11-26T06:56:44.075Z,1.79
2023-11-26T06:59:10.699Z,2.02
2023-11-26T07:01:37.318Z,1.80
2023-11-26T07:04:04.148Z,1.74
2023-11-26T07:06:30.899Z,1.79
2023-11-26T07:08:57.516Z,1.72
2023-11-26T07:11:24.177Z,1.62
2023-11-26T07:13:50.803Z,1.57
2023-11-26T07:16:17.393Z,1.51
2023-11-26T07:18:44.016Z,1.70
2023-11-26T07:21:10.650Z,1.76
2023-11-26T07:23:37.273Z,1.97
2023-11-26T07:26:03.870Z,1.88
2023-11-26T07:28:30.453Z,1.97
2023-11-26T07:30:57.056Z,1.70
2023-11-26T07:33:23.672Z,1.81
2023-11-26T07:35:50.290Z,1.90
2023-11-26T07:38:16.877Z,1.70
2023-11-26T07:40:43.484Z,1.91
2023-11-26T07:43:10.072Z,1.78
2023-11-26T07:45:36.748Z,1.54
2023-11-26T07:48:03.442Z,2.09
2023-11-26T07:50:30.082Z,1.87
2023-11-26T07:52:56.681Z,2.17
2023-11-26T07:55:23.279Z,1.90
2023-11-26T07:57:49.974Z,1.98
2023-11-26T08:00:16.660Z,1.90
2023-11-26T08:02:43.300Z,2.03
2023-11-26T08:05:10.003Z,1.89
2023-11-26T08:07:36.632Z,2.03
2023-11-26T08:10:03.216Z,1.92
2023-11-26T08:12:29.796Z,1.93
2023-11-26T08:14:56.412Z,1.93
2023-11-26T08:17:23.001Z,1.94
2023-11-26T08:19:49.605Z,1.67
2023-11-26T08:22:16.206Z,1.82
2023-11-26T08:24:42.797Z,1.79
2023-11-26T08:27:09.392Z,1.80
2023-11-26T08:29:35.995Z,2.01
2023-11-26T08:32:03.472Z,2.03
2023-11-26T08:34:31.023Z,1.99
2023-11-26T08:36:57.714Z,1.82
2023-11-26T08:39:24.368Z,2.07
2023-11-26T08:41:50.972Z,2.05
2023-11-26T08:44:17.557Z,1.95
2023-11-26T08:46:44.211Z,1.95
2023-11-26T08:49:10.836Z,2.00
2023-11-26T08:51:37.466Z,1.91
2023-11-26T08:54:04.085Z,1.79
2023-11-26T08:56:30.684Z,1.57
2023-11-26T08:58:57.286Z,1.68
2023-11-26T09:01:23.944Z,1.80
2023-11-26T09:03:50.667Z,1.86
2023-11-26T09:06:17.346Z,1.80
2023-11-26T09:08:43.977Z,1.85
2023-11-26T09:11:10.577Z,1.71
2023-11-26T09:13:37.167Z,1.79
2023-11-26T09:16:03.770Z,1.89
2023-11-26T09:18:30.396Z,1.57
2023-11-26T09:20:57.027Z,1.84
2023-11-26T09:23:23.621Z,1.47
2023-11-26T09:25:50.224Z,1.40
2023-11-26T09:28:16.830Z,1.65
2023-11-26T09:30:43.532Z,1.68
2023-11-26T09:33:10.268Z,1.63
2023-11-26T09:35:36.940Z,1.67
2023-11-26T09:38:03.554Z,1.87
2023-11-26T09:40:30.167Z,1.73
2023-11-26T09:42:56.799Z,1.30
2023-11-26T09:45:23.435Z,1.52
2023-11-26T09:47:50.111Z,1.68
2023-11-26T09:50:16.729Z,1.50
2023-11-26T09:52:43.324Z,1.54
2023-11-26T09:55:09.955Z,1.39
2023-11-26T09:57:36.628Z,1.36
2023-11-26T10:00:03.254Z,1.47
2023-11-26T10:02:29.980Z,1.55
2023-11-26T10:04:56.642Z,1.40
2023-11-26T10:07:23.229Z,1.38
2023-11-26T10:09:49.848Z,1.32
2023-11-26T10:12:16.491Z,1.37
2023-11-26T10:14:43.082Z,1.48
2023-11-26T10:17:09.791Z,1.59
2023-11-26T10:19:36.337Z,1.55
2023-11-26T10:22:02.929Z,1.62
2023-11-26T10:24:29.568Z,1.36
2023-11-26T10:26:56.186Z,1.58
2023-11-26T10:29:22.783Z,1.46
2023-11-26T10:31:49.372Z,1.60
2023-11-26T10:34:16.072Z,1.47
2023-11-26T10:36:42.881Z,1.49
2023-11-26T10:39:09.516Z,1.55
2023-11-26T10:41:36.109Z,1.32
2023-11-26T10:44:02.689Z,1.42
2023-11-26T10:46:29.337Z,1.37
2023-11-26T10:48:55.940Z,1.52
2023-11-26T10:51:26.487Z,1.30
2023-11-26T10:53:53.502Z,1.31
2023-11-26T10:56:20.064Z,1.30
2023-11-26T10:58:46.639Z,1.37
2023-11-26T11:01:13.345Z,1.49
2023-11-26T11:03:40.023Z,1.25
2023-11-26T11:06:06.636Z,1.47
2023-11-26T11:08:33.223Z,1.41
2023-11-26T11:10:59.813Z,1.35
2023-11-26T11:13:26.420Z,1.33
2023-11-26T11:15:53.128Z,1.31
2023-11-26T11:18:19.802Z,1.49
2023-11-26T11:20:46.418Z,1.23
2023-11-26T11:23:13.005Z,1.18
2023-11-26T11:25:39.603Z,1.43
2023-11-26T11:28:06.209Z,1.56
2023-11-26T11:30:33.059Z,1.61
2023-11-26T11:32:59.794Z,1.92
2023-11-26T11:35:26.429Z,2.29
2023-11-26T11:37:53.024Z,2.14
2023-11-26T11:40:19.626Z,2.23
2023-11-26T11:42:46.278Z,2.52
2023-11-26T11:45:12.891Z,2.67
2023-11-26T11:47:39.532Z,2.89
2023-11-26T11:50:06.156Z,2.95
2023-11-26T11:52:32.811Z,3.26
2023-11-26T11:54:59.430Z,3.37
2023-11-26T11:57:26.078Z,3.83
2023-11-26T11:59:52.694Z,4.37
2023-11-26T12:02:19.282Z,4.69
2023-11-26T12:04:46.010Z,5.07
2023-11-26T12:07:12.700Z,5.64
2023-11-26T12:09:39.301Z,6.14
2023-11-26T12:12:05.924Z,9.74
2023-11-26T12:14:32.533Z,8.26
2023-11-26T12:16:59.185Z,8.27
2023-11-26T12:19:25.790Z,11.24
2023-11-26T12:21:52.504Z,13.78
2023-11-26T12:24:19.149Z,13.26
2023-11-26T12:26:45.769Z,13.39
2023-11-26T12:29:12.382Z,13.89
2023-11-26T12:31:39.026Z,20.36
2023-11-26T12:34:05.642Z,40.83
2023-11-26T12:36:32.260Z,53.65
2023-11-26T12:38:58.886Z,56.63
2023-11-26T12:41:25.498Z,48.47
2023-11-26T12:43:52.110Z,43.80
2023-11-26T12:46:18.918Z,40.24
2023-11-26T12:48:45.585Z,39.11
2023-11-26T12:51:12.184Z,36.88
2023-11-26T12:53:38.800Z,34.07
2023-11-26T12:56:05.432Z,33.24
2023-11-26T12:58:32.069Z,31.37
2023-11-26T13:00:58.716Z,29.97
2023-11-26T13:03:25.451Z,28.86
2023-11-26T13:05:52.112Z,28.52
2023-11-26T13:08:18.824Z,27.37
2023-11-26T13:10:45.504Z,26.06
2023-11-26T13:13:12.210Z,26.10
2023-11-26T13:15:38.886Z,23.64
2023-11-26T13:18:05.626Z,24.73
2023-11-26T13:20:32.331Z,22.21
2023-11-26T13:23:00.754Z,21.73
2023-11-26T13:25:28.953Z,22.39
2023-11-26T13:27:55.570Z,20.74
2023-11-26T13:30:22.246Z,20.77
2023-11-26T13:32:48.979Z,18.78
2023-11-26T13:35:15.642Z,19.47
2023-11-26T13:37:42.258Z,17.42
2023-11-26T13:40:08.866Z,18.16
2023-11-26T13:42:35.514Z,18.06
2023-11-26T13:45:05.061Z,17.64
2023-11-26T13:47:37.246Z,17.42
2023-11-26T13:50:03.875Z,16.52
2023-11-26T13:52:30.481Z,16.51
2023-11-26T13:54:57.129Z,16.30
2023-11-26T13:57:23.827Z,15.85
2023-11-26T13:59:50.451Z,15.30
2023-11-26T14:02:17.159Z,14.44
2023-11-26T14:04:43.852Z,13.80
2023-11-26T14:07:10.450Z,12.29
2023-11-26T14:09:37.165Z,11.66
2023-11-26T14:12:03.779Z,11.31
2023-11-26T14:14:30.373Z,10.50
2023-11-26T14:16:57.011Z,10.19
2023-11-26T14:19:23.663Z,9.59
2023-11-26T14:21:50.340Z,9.14
2023-11-26T14:24:16.961Z,8.79
2023-11-26T14:26:43.562Z,8.53
2023-11-26T14:29:10.166Z,7.93
2023-11-26T14:31:36.778Z,8.10
2023-11-26T14:34:03.436Z,8.01
2023-11-26T14:36:31.654Z,8.19
2023-11-26T14:38:59.663Z,7.86
2023-11-26T14:41:26.253Z,7.72
2023-11-26T14:43:52.850Z,7.84
2023-11-26T14:46:19.468Z,7.34
2023-11-26T14:48:46.115Z,7.09
2023-11-26T14:51:12.740Z,6.81
2023-11-26T14:53:39.331Z,6.98
2023-11-26T14:56:05.928Z,7.18
2023-11-26T14:58:32.534Z,7.47
2023-11-26T15:00:59.217Z,6.89
2023-11-26T15:03:25.966Z,6.25
2023-11-26T15:05:52.610Z,6.25
2023-11-26T15:08:19.335Z,6.03
2023-11-26T15:10:45.968Z,5.94
2023-11-26T15:13:12.562Z,5.64
2023-11-26T15:15:39.200Z,5.91
2023-11-26T15:18:05.919Z,5.83
2023-11-26T15:20:32.545Z,5.25
2023-11-26T15:22:59.155Z,5.47
2023-11-26T15:25:25.770Z,5.38
2023-11-26T15:27:52.418Z,4.87
2023-11-26T15:30:19.022Z,4.78
2023-11-26T15:32:45.771Z,4.36
2023-11-26T15:35:12.713Z,4.16
2023-11-26T15:37:39.580Z,4.08
2023-11-26T15:40:06.233Z,4.35
2023-11-26T15:42:32.888Z,4.40
2023-11-26T15:44:59.509Z,3.87
2023-11-26T15:47:26.110Z,3.77
2023-11-26T15:49:52.714Z,3.90
2023-11-26T15:52:19.321Z,3.76
2023-11-26T15:54:45.939Z,3.73
2023-11-26T15:57:12.621Z,3.86
2023-11-26T15:59:39.235Z,3.50
2023-11-26T16:02:05.992Z,3.49
2023-11-26T16:04:32.661Z,3.66
2023-11-26T16:06:59.350Z,4.09
2023-11-26T16:09:26.011Z,3.82
2023-11-26T16:11:52.634Z,3.58
2023-11-26T16:14:19.229Z,3.24
2023-11-26T16:16:52.408Z,3.31
2023-11-26T16:19:26.561Z,3.03
2023-11-26T16:21:53.250Z,3.27
2023-11-26T16:24:28.801Z,3.20
2023-11-26T16:26:59.140Z,3.30
2023-11-26T16:29:25.737Z,3.08
2023-11-26T16:31:52.333Z,3.29
2023-11-26T16:34:18.952Z,3.14
2023-11-26T16:36:45.556Z,3.27
2023-11-26T16:39:12.162Z,3.44
2023-11-26T16:41:38.754Z,3.17
2023-11-26T16:44:05.388Z,3.32
2023-11-26T16:46:32.049Z,3.68
2023-11-26T16:48:58.709Z,3.47
2023-11-26T16:51:25.412Z,3.40
2023-11-26T16:53:52.010Z,3.48
2023-11-26T16:56:18.550Z,3.30
2023-11-26T16:58:45.389Z,3.40
2023-11-26T17:01:12.102Z,3.51
2023-11-26T17:03:38.922Z,3.50
2023-11-26T17:06:05.563Z,3.40
2023-11-26T17:08:32.183Z,3.20
2023-11-26T17:10:58.796Z,3.54
2023-11-26T17:13:25.395Z,3.40
2023-11-26T17:15:52.097Z,3.26
2023-11-26T17:18:18.930Z,3.23
2023-11-26T17:20:45.600Z,3.15
2023-11-26T17:23:12.247Z,3.28
2023-11-26T17:25:38.846Z,3.43
2023-11-26T17:28:05.531Z,3.27
2023-11-26T17:30:32.172Z,3.23
2023-11-26T17:32:58.814Z,3.40
2023-11-26T17:35:25.426Z,3.33
2023-11-26T17:37:52.031Z,3.79
2023-11-26T17:40:18.653Z,3.59
2023-11-26T17:42:45.268Z,3.50
2023-11-26T17:45:11.902Z,3.49
2023-11-26T17:47:38.497Z,3.57
2023-11-26T17:50:05.136Z,3.65
2023-11-26T17:52:31.741Z,3.39
2023-11-26T17:54:58.351Z,3.13
2023-11-26T17:57:25.012Z,3.24
2023-11-26T17:59:51.607Z,3.32
2023-11-26T18:02:18.320Z,3.32
2023-11-26T18:04:45.056Z,3.32
2023-11-26T18:07:11.685Z,3.24
2023-11-26T18:09:38.300Z,3.20
2023-11-26T18:12:07.707Z,3.02
2023-11-26T18:14:34.305Z,3.16
2023-11-26T18:17:00.976Z,2.99
2023-11-26T18:19:27.598Z,3.05
2023-11-26T18:21:54.240Z,2.80
2023-11-26T18:24:20.869Z,2.79
2023-11-26T18:26:47.481Z,2.80
2023-11-26T18:29:14.076Z,2.90
2023-11-26T18:31:40.724Z,2.89
2023-11-26T18:34:07.377Z,3.08
2023-11-26T18:36:34.050Z,3.24
2023-11-26T18:39:00.679Z,3.14
2023-11-26T18:41:27.288Z,3.04
2023-11-26T18:43:53.890Z,2.78
2023-11-26T18:46:20.548Z,2.86
2023-11-26T18:48:47.208Z,2.86
2023-11-26T18:51:13.825Z,3.19
2023-11-26T18:53:40.437Z,3.21
2023-11-26T18:56:07.056Z,3.44
2023-11-26T18:58:33.661Z,3.56
2023-11-26T19:01:00.426Z,3.50
2023-11-26T19:03:27.096Z,3.46
2023-11-26T19:05:53.709Z,3.40
2023-11-26T19:08:20.318Z,3.43
2023-11-26T19:10:46.915Z,3.23
2023-11-26T19:13:13.534Z,3.41
2023-11-26T19:15:40.167Z,3.24
2023-11-26T19:18:06.823Z,3.28
2023-11-26T19:20:33.456Z,3.08
2023-11-26T19:23:00.077Z,2.95
2023-11-26T19:25:26.692Z,3.13
2023-11-26T19:27:53.360Z,3.17
2023-11-26T19:30:20.000Z,2.85
2023-11-26T19:32:46.614Z,3.10
2023-11-26T19:35:13.221Z,2.99
2023-11-26T19:37:39.835Z,2.76
2023-11-26T19:40:06.460Z,2.85
2023-11-26T19:42:33.151Z,2.90
2023-11-26T19:44:59.781Z,3.01
2023-11-26T19:47:26.387Z,2.80
2023-11-26T19:49:52.984Z,2.64
2023-11-26T19:52:19.657Z,2.67
2023-11-26T19:54:46.406Z,2.82
2023-11-26T19:57:13.025Z,2.56
2023-11-26T19:59:39.636Z,2.64
2023-11-26T20:02:06.331Z,2.54
2023-11-26T20:04:33.016Z,2.63
2023-11-26T20:06:59.746Z,2.54
2023-11-26T20:09:26.370Z,2.50
2023-11-26T20:11:52.960Z,2.39
2023-11-26T20:14:19.554Z,2.59
2023-11-26T20:16:46.169Z,2.58
2023-11-26T20:19:12.829Z,2.65
2023-11-26T20:21:39.474Z,2.75
2023-11-26T20:24:06.081Z,2.41
2023-11-26T20:26:32.680Z,2.58
2023-11-26T20:28:59.289Z,2.46
2023-11-26T20:31:25.896Z,2.26
2023-11-26T20:33:52.639Z,2.63
2023-11-26T20:36:19.337Z,2.69
2023-11-26T20:38:45.955Z,2.58
2023-11-26T20:41:12.621Z,2.45
2023-11-26T20:43:39.225Z,2.18
2023-11-26T20:46:05.922Z,2.40
2023-11-26T20:48:32.635Z,2.46
2023-11-26T20:50:59.287Z,2.38
2023-11-26T20:53:25.904Z,2.42
2023-11-26T20:55:52.507Z,2.25
2023-11-26T20:58:19.181Z,2.63
2023-11-26T21:00:46.014Z,2.23
2023-11-26T21:03:12.734Z,2.48
2023-11-26T21:05:39.384Z,2.44
2023-11-26T21:08:06.001Z,2.41
2023-11-26T21:10:32.623Z,2.19
2023-11-26T21:12:59.264Z,2.41
2023-11-26T21:15:25.881Z,2.40
2023-11-26T21:17:52.524Z,2.30
2023-11-26T21:20:19.150Z,2.24
2023-11-26T21:22:45.731Z,2.52
2023-11-26T21:25:12.399Z,2.43
2023-11-26T21:27:39.161Z,2.35
2023-11-26T21:30:05.808Z,2.38
2023-11-26T21:32:32.431Z,2.23
2023-11-26T21:34:59.171Z,2.55
2023-11-26T21:37:25.805Z,2.36
2023-11-26T21:39:52.412Z,2.11
2023-11-26T21:42:19.068Z,2.30
2023-11-26T21:44:45.670Z,2.24
2023-11-26T21:47:12.329Z,2.19
2023-11-26T21:49:38.954Z,2.36
2023-11-26T21:52:05.624Z,2.40
2023-11-26T21:54:32.238Z,2.20
2023-11-26T21:56:58.831Z,2.21
2023-11-26T21:59:25.457Z,2.24
2023-11-26T22:01:52.476Z,2.22
2023-11-26T22:04:19.489Z,2.20
2023-11-26T22:06:46.222Z,2.11
2023-11-26T22:09:12.950Z,2.25
2023-11-26T22:11:39.549Z,2.13
2023-11-26T22:14:06.178Z,2.29
2023-11-26T22:16:32.797Z,2.12
2023-11-26T22:19:00.688Z,2.19
2023-11-26T22:21:28.319Z,2.22
2023-11-26T22:23:54.968Z,2.01
2023-11-26T22:26:21.566Z,2.24
2023-11-26T22:28:48.176Z,2.04
2023-11-26T22:31:14.897Z,2.15
2023-11-26T22:33:41.600Z,2.19
2023-11-26T22:36:08.218Z,2.19
2023-11-26T22:38:34.816Z,2.26
2023-11-26T22:41:01.434Z,2.00
2023-11-26T22:43:28.120Z,2.15
2023-11-26T22:45:54.803Z,2.06
2023-11-26T22:48:21.442Z,2.21
2023-11-26T22:50:52.633Z,2.27
2023-11-26T22:53:20.060Z,2.22
2023-11-26T22:55:46.652Z,2.08
2023-11-26T22:58:13.392Z,2.16
2023-11-26T23:00:40.078Z,2.08
2023-11-26T23:03:06.776Z,2.12
2023-11-26T23:05:33.431Z,2.16
2023-11-26T23:08:00.128Z,2.25
2023-11-26T23:10:26.730Z,2.09
2023-11-26T23:12:53.367Z,1.93
2023-11-26T23:15:20.001Z,2.14
2023-11-26T23:17:46.628Z,2.12
2023-11-26T23:20:13.298Z,1.95
2023-11-26T23:22:39.909Z,1.90
2023-11-26T23:25:06.573Z,2.09
2023-11-26T23:27:33.230Z,1.83
2023-11-26T23:29:59.824Z,2.13
2023-11-26T23:32:26.445Z,2.04
2023-11-26T23:34:53.064Z,2.09
